createdAt,value
2022-12-17T11:09:42.349Z,43.91
2022-12-17T11:10:12.302Z,40.80
2022-12-17T11:10:42.266Z,40.72
2022-12-17T11:11:12.257Z,41.27
2022-12-17T11:11:42.198Z,40.62
2022-12-17T11:12:12.164Z,39.58
2022-12-17T11:12:42.112Z,38.78
2022-12-17T11:13:12.109Z,38.86
2022-12-17T11:13:41.998Z,37.82
2022-12-17T11:14:11.956Z,37.70
2022-12-17T11:14:42.176Z,38.81
2022-12-17T11:15:11.884Z,38.90
2022-12-17T11:15:41.864Z,38.59
2022-12-17T11:16:11.775Z,38.99
2022-12-17T11:16:41.792Z,38.07
2022-12-17T11:17:11.736Z,38.17
2022-12-17T11:17:41.621Z,38.05
2022-12-17T11:18:12.032Z,36.43
2022-12-17T11:18:41.361Z,36.33
2022-12-17T11:19:11.241Z,36.93
2022-12-17T11:19:41.266Z,37.01
2022-12-17T11:20:11.189Z,36.61
2022-12-17T11:20:41.024Z,37.21
2022-12-17T11:21:10.934Z,37.61
2022-12-17T11:21:40.854Z,37.81
2022-12-17T11:22:10.908Z,37.41
2022-12-17T11:22:40.706Z,36.99
2022-12-17T11:23:10.640Z,36.90
2022-12-17T11:23:40.570Z,37.19
2022-12-17T11:24:10.439Z,36.40
2022-12-17T11:24:40.408Z,36.79
2022-12-17T11:25:10.297Z,37.40
2022-12-17T11:25:40.210Z,37.59
2022-12-17T11:26:10.117Z,37.40
2022-12-17T11:26:40.018Z,36.49
2022-12-17T11:27:09.988Z,37.40
2022-12-17T11:27:39.870Z,36.69
2022-12-17T11:28:09.786Z,36.49
2022-12-17T11:28:39.744Z,36.79
2022-12-17T11:29:09.616Z,36.49
2022-12-17T11:29:39.533Z,37.19
2022-12-17T11:30:09.439Z,37.10
2022-12-17T11:30:39.390Z,36.90
2022-12-17T11:31:09.389Z,36.49
2022-12-17T11:31:39.315Z,37.19
2022-12-17T11:32:09.085Z,36.79
2022-12-17T11:32:39.013Z,34.51
2022-12-17T11:33:08.944Z,30.57
2022-12-17T11:33:39.202Z,30.24
2022-12-17T11:34:08.793Z,30.80
2022-12-17T11:34:38.724Z,30.96
2022-12-17T11:35:08.684Z,31.12
2022-12-17T11:35:38.633Z,31.65
2022-12-17T11:36:08.563Z,31.99
2022-12-17T11:36:39.350Z,32.22
2022-12-17T11:37:08.483Z,32.25
2022-12-17T11:37:38.449Z,33.35
2022-12-17T11:38:08.410Z,34.42
2022-12-17T11:38:38.652Z,33.66
2022-12-17T11:39:08.310Z,33.22
2022-12-17T11:39:38.275Z,34.30
2022-12-17T11:40:08.199Z,33.56
2022-12-17T11:40:38.174Z,33.75
2022-12-17T11:41:08.108Z,34.72
2022-12-17T11:41:38.033Z,35.11
2022-12-17T11:42:11.285Z,34.69
2022-12-17T11:42:37.915Z,35.77
2022-12-17T11:43:07.812Z,36.57
2022-12-17T11:43:37.761Z,36.55
2022-12-17T11:44:07.676Z,36.54
2022-12-17T11:44:37.616Z,36.54
2022-12-17T11:45:07.547Z,36.72
2022-12-17T11:45:37.440Z,35.69
2022-12-17T11:46:07.432Z,31.86
2022-12-17T11:46:37.355Z,33.70
2022-12-17T11:47:07.226Z,34.51
2022-12-17T11:47:37.177Z,34.59
2022-12-17T11:48:07.077Z,35.38
2022-12-17T11:48:37.371Z,34.96
2022-12-17T11:49:06.936Z,33.64
2022-12-17T11:49:36.927Z,34.94
2022-12-17T11:50:06.782Z,35.43
2022-12-17T11:50:36.745Z,34.21
2022-12-17T11:51:06.700Z,32.03
2022-12-17T11:51:36.612Z,29.59
2022-12-17T11:52:06.562Z,29.85
2022-12-17T11:52:36.481Z,30.40
2022-12-17T11:53:06.413Z,30.84
2022-12-17T11:53:36.374Z,30.47
2022-12-17T11:54:06.328Z,31.51
2022-12-17T11:54:36.322Z,31.83
2022-12-17T11:55:06.278Z,31.84
2022-12-17T11:55:36.219Z,32.18
2022-12-17T11:56:06.255Z,32.01
2022-12-17T11:56:36.188Z,32.62
2022-12-17T11:57:06.167Z,33.04
2022-12-17T11:57:36.092Z,32.63
2022-12-17T11:58:06.064Z,33.83
2022-12-17T11:58:36.383Z,34.09
2022-12-17T11:59:06.017Z,33.13
2022-12-17T11:59:36.004Z,34.31
2022-12-17T12:00:05.869Z,33.86
2022-12-17T12:00:35.932Z,33.92
2022-12-17T12:01:05.762Z,32.98
2022-12-17T12:01:35.760Z,32.54
2022-12-17T12:02:05.689Z,32.63
2022-12-17T12:02:35.703Z,34.61
2022-12-17T12:03:05.589Z,35.68
2022-12-17T12:03:35.597Z,33.75
2022-12-17T12:04:05.424Z,35.44
2022-12-17T12:04:35.364Z,34.02
2022-12-17T12:05:05.257Z,34.61
2022-12-17T12:05:35.142Z,35.39
2022-12-17T12:06:05.129Z,34.67
2022-12-17T12:06:34.976Z,34.98
2022-12-17T12:07:04.910Z,35.16
2022-12-17T12:07:34.860Z,34.74
2022-12-17T12:08:04.716Z,34.63
2022-12-17T12:08:35.066Z,35.13
2022-12-17T12:09:04.589Z,34.71
2022-12-17T12:09:34.469Z,34.31
2022-12-17T12:10:04.375Z,34.61
2022-12-17T12:10:34.297Z,34.71
2022-12-17T12:11:04.178Z,34.09
2022-12-17T12:11:34.160Z,34.19
2022-12-17T12:12:04.002Z,34.69
2022-12-17T12:12:33.905Z,34.59
2022-12-17T12:13:03.884Z,34.59
2022-12-17T12:13:33.724Z,34.58
2022-12-17T12:14:03.649Z,34.06
2022-12-17T12:14:33.533Z,33.88
2022-12-17T12:15:03.427Z,34.48
2022-12-17T12:15:33.357Z,34.76
2022-12-17T12:16:03.310Z,34.26
2022-12-17T12:16:33.264Z,34.78
2022-12-17T12:17:03.059Z,34.56
2022-12-17T12:17:32.978Z,34.76
2022-12-17T12:18:02.902Z,34.36
2022-12-17T12:18:32.799Z,34.96
2022-12-17T12:19:02.725Z,34.36
2022-12-17T12:19:32.634Z,34.58
2022-12-17T12:20:02.522Z,35.56
2022-12-17T12:20:32.442Z,35.28
2022-12-17T12:21:02.363Z,35.18
2022-12-17T12:21:32.271Z,35.06
2022-12-17T12:22:02.182Z,35.58
2022-12-17T12:22:32.113Z,35.28
2022-12-17T12:23:02.008Z,35.18
2022-12-17T12:23:31.931Z,35.18
2022-12-17T12:24:01.864Z,35.28
2022-12-17T12:24:31.767Z,35.58
2022-12-17T12:25:01.678Z,35.38
2022-12-17T12:25:31.614Z,35.58
2022-12-17T12:26:01.542Z,35.78
2022-12-17T12:26:31.716Z,35.60
2022-12-17T12:27:01.369Z,35.30
2022-12-17T12:27:31.291Z,35.80
2022-12-17T12:28:01.187Z,35.28
2022-12-17T12:28:31.165Z,35.99
2022-12-17T12:29:01.029Z,36.29
2022-12-17T12:29:30.963Z,36.38
2022-12-17T12:30:00.866Z,36.18
2022-12-17T12:30:30.806Z,35.18
2022-12-17T12:31:00.718Z,35.98
2022-12-17T12:31:30.745Z,35.38
2022-12-17T12:32:00.636Z,35.46
2022-12-17T12:32:30.454Z,35.26
2022-12-17T12:33:03.159Z,34.94
2022-12-17T12:33:31.299Z,35.64
2022-12-17T12:34:00.180Z,35.54
2022-12-17T12:34:30.115Z,35.54
2022-12-17T12:35:00.000Z,34.03
2022-12-17T12:35:29.919Z,33.63
2022-12-17T12:35:59.832Z,33.53
2022-12-17T12:36:29.806Z,34.31
2022-12-17T12:36:59.681Z,34.61
2022-12-17T12:37:29.630Z,34.41
2022-12-17T12:37:59.478Z,34.59
2022-12-17T12:38:29.443Z,34.00
2022-12-17T12:38:59.325Z,34.78
2022-12-17T12:39:29.223Z,34.38
2022-12-17T12:39:59.181Z,34.28
2022-12-17T12:40:30.367Z,34.36
2022-12-17T12:41:09.043Z,32.81
2022-12-17T12:41:28.844Z,31.87
2022-12-17T12:44:15.669Z,30.09
2022-12-17T12:44:49.596Z,30.47
2022-12-17T12:45:15.350Z,29.90
2022-12-17T12:45:45.402Z,30.08
2022-12-17T12:46:15.417Z,30.37
2022-12-17T12:46:45.295Z,30.18
2022-12-17T12:47:15.295Z,30.57
2022-12-17T13:08:01.370Z,27.33
2022-12-17T13:08:31.237Z,27.83
2022-12-17T13:09:01.251Z,28.32
2022-12-17T13:09:34.826Z,27.83
2022-12-17T13:10:01.259Z,28.92
2022-12-17T13:10:31.257Z,28.31
2022-12-17T13:11:01.300Z,29.52
2022-12-17T13:11:31.258Z,30.25
2022-12-17T13:12:01.233Z,30.91
2022-12-17T13:12:31.312Z,30.73
2022-12-17T13:13:01.269Z,30.32
2022-12-17T13:13:31.216Z,30.22
2022-12-17T13:14:01.219Z,29.41
2022-12-17T13:14:31.250Z,30.02
2022-12-17T13:15:01.233Z,30.12
2022-12-17T13:15:33.232Z,29.94
2022-12-17T13:16:01.248Z,30.04
2022-12-17T13:16:31.268Z,30.12
2022-12-17T13:17:01.198Z,30.22
2022-12-17T13:17:31.208Z,30.41
2022-12-17T13:18:01.351Z,30.12
2022-12-17T13:18:31.279Z,30.53
2022-12-17T13:19:01.191Z,31.42
2022-12-17T13:19:31.162Z,31.31
2022-12-17T13:20:01.136Z,31.13
2022-12-17T13:20:31.106Z,31.42
2022-12-17T13:21:01.113Z,31.52
2022-12-17T13:21:31.077Z,31.41
2022-12-17T13:22:01.359Z,31.51
2022-12-17T13:22:31.062Z,30.90
2022-12-17T13:23:01.101Z,30.60
2022-12-17T13:23:31.280Z,30.58
2022-12-17T13:24:01.112Z,30.98
2022-12-17T13:24:30.992Z,29.90
2022-12-17T13:25:10.666Z,31.10
2022-12-17T13:25:30.941Z,31.28
2022-12-17T13:26:00.939Z,30.98
2022-12-17T13:26:30.904Z,31.16
2022-12-17T13:27:00.917Z,30.87
2022-12-17T13:27:30.859Z,30.46
2022-12-17T13:28:00.847Z,30.24
2022-12-17T13:28:30.837Z,30.34
2022-12-17T13:29:00.893Z,30.33
2022-12-17T13:29:30.891Z,29.93
2022-12-17T13:30:09.718Z,30.06
2022-12-17T13:30:30.716Z,30.57
2022-12-17T13:31:00.705Z,31.57
2022-12-17T13:31:30.717Z,31.10
2022-12-17T13:32:00.824Z,31.38
2022-12-17T13:32:30.641Z,30.98
2022-12-17T13:33:00.619Z,31.18
2022-12-17T13:33:30.649Z,31.48
2022-12-17T13:34:00.584Z,31.25
2022-12-17T13:34:40.239Z,30.92
2022-12-17T13:35:02.396Z,30.13
2022-12-17T13:36:55.282Z,31.22
2022-12-17T13:37:25.278Z,30.21
2022-12-17T13:37:55.289Z,29.91
2022-12-17T13:38:25.300Z,30.00
2022-12-17T13:38:55.330Z,30.00
2022-12-17T13:39:25.287Z,30.40
2022-12-17T13:39:55.309Z,30.40
2022-12-17T13:40:25.279Z,29.69
2022-12-17T13:40:55.288Z,29.79
2022-12-17T13:41:25.302Z,29.99
2022-12-17T13:41:55.280Z,29.89
2022-12-17T13:42:25.271Z,29.20
2022-12-17T13:43:03.055Z,28.41
2022-12-17T13:43:36.271Z,27.93
2022-12-17T13:43:55.273Z,27.24
2022-12-17T13:44:25.255Z,27.06
2022-12-17T13:44:55.266Z,26.57
2022-12-17T13:45:36.684Z,25.29
2022-12-17T13:45:55.322Z,25.98
2022-12-17T13:46:25.395Z,25.68
2022-12-17T13:47:06.956Z,25.79
2022-12-17T13:47:25.278Z,26.50
2022-12-17T13:47:55.290Z,27.49
2022-12-17T13:50:03.989Z,27.48
2022-12-17T13:50:33.826Z,28.96
2022-12-17T13:50:48.433Z,29.27
2022-12-17T13:51:17.443Z,29.47
2022-12-17T13:51:47.448Z,28.88
2022-12-17T13:52:17.441Z,29.37
2022-12-17T13:52:47.499Z,30.37
2022-12-17T13:53:17.468Z,30.19
2022-12-17T13:53:47.424Z,30.19
2022-12-17T13:54:17.448Z,30.99
2022-12-17T13:54:47.448Z,31.31
2022-12-17T13:55:17.426Z,31.31
2022-12-17T13:55:47.410Z,31.60
2022-12-17T13:56:17.417Z,31.02
2022-12-17T13:56:47.421Z,31.41
2022-12-17T13:57:17.419Z,31.52
2022-12-17T13:57:47.412Z,31.21
2022-12-17T13:58:17.425Z,31.62
2022-12-17T13:58:51.078Z,31.42
2022-12-17T13:59:17.422Z,31.62
2022-12-17T13:59:47.463Z,31.42
